< < Back
Terminal Aerodrome Forecast


Current Version              Previous Versions:   1  2  3  4  5  6  7  8  9  

Terminal Aerodrome Forecast

696
FTUS42 KFFC 302334
TAFFTY
TAF
KFTY 302334Z 0100/0124 03005KT P6SM BKN070
      TEMPO 0100/0102 VRB10KT 5SM TSRA BKN035CB
     FM010200 23005KT P6SM SCT100 BKN250
     FM010600 22004KT 5SM BR SCT008 BKN250
     FM011400 27005KT P6SM SCT040
     FM011800 28007KT P6SM FEW050
     FM012300 29006KT P6SM FEW250=



Latest METAR

622
SAUS70 KWBC 010000 RRX
MTRFTY
METAR KFTY 302353Z 15017G22KT 10SM FEW050 OVC075 31/20 A2995 RMK AO2 LTG
DSNT S SLP131 T03060200 10344 20306 53010


USA.gov is the U.S. government's official web portal to all federal, state and local government web resources and services.